| time (UTC) | temp F | wind direction | speed MPH | gust MPH | rain 1hr in | rain 24hr in | rain mn in | humidity % | barometer mb |
| 20260831063713 | 72 | 84 | 3.0 | 9.0 | 0.00 | 0.00 | 0.00 | 44 | 1028.3 |
| 20260831062219 | 72 | 80 | 6.0 | 11.0 | 0.00 | 0.00 | 0.00 | 45 | 1028.2 |
| 20260831060710 | 74 | 101 | 5.0 | 11.0 | 0.00 | 0.00 | 0.00 | 46 | 1028.2 |
| 20260831055220 | 74 | 95 | 3.0 | 13.0 | 0.00 | 0.00 | 0.00 | 50 | 1028.0 |
| 20260831053702 | 75 | 84 | 7.0 | 13.0 | 0.00 | 0.00 | 0.00 | 47 | 1028.1 |
| 20260831052200 | 78 | 74 | 4.0 | 13.0 | 0.00 | 0.00 | 0.00 | 45 | 1028.1 |
| 20260831050657 | 80 | 83 | 2.0 | 10.0 | 0.00 | 0.00 | 0.00 | 42 | 1028.1 |
| 20260831045206 | 82 | 350 | 1.0 | 8.0 | 0.00 | 0.00 | 0.00 | 41 | 1028.1 |
| 20260831043658 | 82 | 24 | 1.0 | 4.0 | 0.00 | 0.00 | 0.00 | 39 | 1028.2 |
| 20260831042156 | 81 | 48 | 1.0 | 5.0 | 0.00 | 0.00 | 0.00 | 43 | 1028.1 |
| 20260831040702 | 81 | 19 | 1.0 | 5.0 | 0.00 | 0.00 | 0.00 | 39 | 1028.1 |
| 20260831035151 | 81 | 37 | 1.0 | 9.0 | 0.00 | 0.00 | 0.00 | 41 | 1028.5 |
| 20260831033652 | 81 | 5 | 1.0 | 5.0 | 0.00 | 0.00 | 0.00 | 44 | 1028.5 |
| 20260831032149 | 80 | 38 | 1.0 | 5.0 | 0.00 | 0.00 | 0.00 | 44 | 1028.7 |
| 20260831030656 | 79 | 17 | 1.0 | 7.0 | 0.00 | 0.00 | 0.00 | 44 | 1029.0 |
| 20260831025148 | 78 | 71 | 1.0 | 4.0 | 0.00 | 0.00 | 0.00 | 44 | 1029.1 |
| 20260831023647 | 78 | 22 | 1.0 | 7.0 | 0.00 | 0.00 | 0.00 | 45 | 1029.3 |
| 20260831022142 | 77 | 48 | 1.0 | 5.0 | 0.00 | 0.00 | 0.00 | 45 | 1029.6 |
| 20260831020649 | 76 | 36 | 1.0 | 4.0 | 0.00 | 0.00 | 0.00 | 47 | 1029.7 |
| 20260831015137 | 75 | 293 | 1.0 | 3.0 | 0.00 | 0.00 | 0.00 | 49 | 1030.1 |
| 20260831013636 | 73 | 292 | 1.0 | 3.0 | 0.00 | 0.00 | 0.00 | 47 | 1030.4 |
| 20260831012137 | 72 | 292 | 1.0 | 4.0 | 0.00 | 0.00 | 0.00 | 49 | 1030.6 |
| 20260831010618 | 71 | 329 | 1.0 | 4.0 | 0.00 | 0.00 | 0.00 | 54 | 1030.9 |
| 20260831005114 | 69 | 286 | 0.0 | 4.0 | 0.00 | 0.00 | 0.00 | 56 | 1031.0 |
| 20260831003613 | 68 | 288 | 1.0 | 3.0 | 0.00 | 0.00 | 0.00 | 58 | 1031.0 |
| 20260831002806 | 68 | 288 | 1.0 | 3.0 | 0.00 | 0.00 | 0.00 | 57 | 1031.1 |
| 20260831000612 | 68 | 106 | 1.0 | 4.0 | 0.00 | 0.00 | 0.00 | 57 | 1031.1 |
| 20260830235042 | 66 | 99 | 0.0 | 5.0 | 0.00 | 0.00 | 0.00 | 60 | 1031.1 |
| 20260830233530 | 64 | 111 | 2.0 | 4.0 | 0.00 | 0.00 | 0.00 | 61 | 1031.2 |
| 20260830232020 | 60 | 153 | 1.0 | 3.0 | 0.00 | 0.00 | 0.00 | 65 | 1031.1 |
| 20260830230520 | 58 | 0 | 1.0 | 3.0 | 0.00 | 0.00 | 0.00 | 68 | 1031.2 |
| 20260830225012 | 55 | 0 | 1.0 | 3.0 | 0.00 | 0.00 | 0.00 | 74 | 1031.2 |
| 20260830223520 | 51 | 149 | 1.0 | 4.0 | 0.00 | 0.00 | 0.00 | 79 | 1031.0 |
| 20260830222012 | 49 | 0 | 2.0 | 5.0 | 0.00 | 0.00 | 0.00 | 81 | 1031.0 |
| 20260830220500 | 47 | 0 | 2.0 | 4.0 | 0.00 | 0.00 | 0.00 | 82 | 1030.9 |
| 20260830214955 | 46 | 148 | 3.0 | 6.0 | 0.00 | 0.00 | 0.00 | 84 | 1030.9 |
| 20260830213448 | 44 | 171 | 3.0 | 7.0 | 0.00 | 0.00 | 0.00 | 84 | 1030.8 |
| 20260830211938 | 44 | 145 | 4.0 | 7.0 | 0.00 | 0.00 | 0.00 | 85 | 1030.7 |
| 20260830210438 | 43 | 119 | 3.0 | 8.0 | 0.00 | 0.00 | 0.00 | 84 | 1030.5 |
| 20260830204936 | 43 | 129 | 2.0 | 8.0 | 0.00 | 0.00 | 0.00 | 84 | 1030.4 |
| 20260830203431 | 43 | 111 | 4.0 | 9.0 | 0.00 | 0.00 | 0.00 | 84 | 1030.2 |
| 20260830201925 | 43 | 167 | 3.0 | 8.0 | 0.00 | 0.00 | 0.00 | 84 | 1030.0 |
| 20260830200417 | 43 | 142 | 2.0 | 6.0 | 0.00 | 0.00 | 0.00 | 84 | 1029.8 |
| 20260830195604 | 43 | 135 | 2.0 | 5.0 | 0.00 | 0.00 | 0.00 | 84 | 1029.8 |
| 20260830193412 | 43 | 174 | 3.0 | 9.0 | 0.00 | 0.00 | 0.00 | 84 | 1029.6 |
| 20260830191920 | 43 | 162 | 2.0 | 6.0 | 0.00 | 0.00 | 0.00 | 85 | 1029.6 |
| 20260830190413 | 43 | 153 | 3.0 | 6.0 | 0.00 | 0.00 | 0.00 | 85 | 1029.5 |
| 20260830184913 | 43 | 153 | 2.0 | 7.0 | 0.00 | 0.00 | 0.00 | 84 | 1029.4 |
| 20260830183403 | 44 | 234 | 3.0 | 7.0 | 0.00 | 0.00 | 0.00 | 84 | 1029.5 |
| 20260830181901 | 44 | 161 | 2.0 | 5.0 | 0.00 | 0.00 | 0.00 | 84 | 1029.6 |
| 20260830180358 | 44 | 171 | 3.0 | 7.0 | 0.00 | 0.00 | 0.00 | 83 | 1029.8 |
| 20260830174837 | 44 | 158 | 1.0 | 5.0 | 0.00 | 0.00 | 0.00 | 83 | 1029.7 |
| 20260830173329 | 44 | 171 | 0.0 | 4.0 | 0.00 | 0.00 | 0.00 | 83 | 1029.7 |
| 20260830171819 | 44 | 171 | 1.0 | 4.0 | 0.00 | 0.00 | 0.00 | 83 | 1029.9 |
| 20260830170328 | 45 | 173 | 2.0 | 6.0 | 0.00 | 0.00 | 0.00 | 83 | 1030.1 |
| 20260830164819 | 45 | 169 | 3.0 | 6.0 | 0.00 | 0.00 | 0.00 | 82 | 1030.2 |
| 20260830163324 | 45 | 132 | 0.0 | 3.0 | 0.00 | 0.00 | 0.00 | 81 | 1030.2 |
| 20260830161821 | 46 | 132 | 2.0 | 4.0 | 0.00 | 0.00 | 0.00 | 82 | 1030.3 |
| 20260830160258 | 46 | 133 | 2.0 | 5.0 | 0.00 | 0.00 | 0.00 | 82 | 1030.4 |
| 20260830154758 | 46 | 120 | 3.0 | 6.0 | 0.00 | 0.00 | 0.00 | 82 | 1030.5 |
| 20260830153249 | 46 | 164 | 3.0 | 7.0 | 0.00 | 0.00 | 0.00 | 81 | 1030.5 |
| 20260830151746 | 46 | 153 | 3.0 | 7.0 | 0.00 | 0.00 | 0.00 | 81 | 1030.7 |
| 20260830150249 | 47 | 137 | 2.0 | 5.0 | 0.00 | 0.00 | 0.00 | 81 | 1030.7 |
| 20260830144746 | 47 | 142 | 1.0 | 5.0 | 0.00 | 0.00 | 0.00 | 81 | 1030.7 |
| 20260830143245 | 47 | 142 | 2.0 | 4.0 | 0.00 | 0.00 | 0.00 | 80 | 1030.7 |
| 20260830141745 | 47 | 159 | 2.0 | 5.0 | 0.00 | 0.00 | 0.00 | 80 | 1030.7 |
| 20260830140238 | 47 | 160 | 2.0 | 5.0 | 0.00 | 0.00 | 0.00 | 79 | 1030.6 |
| 20260830134736 | 48 | 126 | 2.0 | 5.0 | 0.00 | 0.00 | 0.00 | 78 | 1030.7 |
| 20260830133238 | 48 | 117 | 3.0 | 7.0 | 0.00 | 0.00 | 0.00 | 78 | 1030.8 |
| 20260830131724 | 48 | 164 | 3.0 | 8.0 | 0.00 | 0.00 | 0.00 | 77 | 1030.7 |
| 20260830130223 | 49 | 156 | 3.0 | 8.0 | 0.00 | 0.00 | 0.00 | 75 | 1030.8 |
| 20260830124724 | 49 | 166 | 3.0 | 9.0 | 0.00 | 0.00 | 0.00 | 76 | 1030.8 |
| 20260830123225 | 49 | 148 | 2.0 | 5.0 | 0.00 | 0.00 | 0.00 | 75 | 1030.8 |
| 20260830121712 | 50 | 146 | 2.0 | 6.0 | 0.00 | 0.00 | 0.00 | 74 | 1030.7 |
| 20260830120214 | 50 | 147 | 2.0 | 6.0 | 0.00 | 0.00 | 0.00 | 74 | 1030.7 |
| 20260830114715 | 50 | 155 | 3.0 | 6.0 | 0.00 | 0.00 | 0.00 | 73 | 1030.6 |
| 20260830113217 | 51 | 122 | 3.0 | 5.0 | 0.00 | 0.00 | 0.00 | 73 | 1030.6 |
| 20260830111718 | 51 | 162 | 3.0 | 6.0 | 0.00 | 0.00 | 0.00 | 72 | 1030.5 |
| 20260830110230 | 52 | 148 | 1.0 | 3.0 | 0.00 | 0.00 | 0.00 | 71 | 1030.3 |
| 20260830104713 | 52 | 142 | 2.0 | 6.0 | 0.00 | 0.00 | 0.00 | 70 | 1030.3 |
| 20260830103214 | 53 | 146 | 2.0 | 4.0 | 0.00 | 0.00 | 0.00 | 69 | 1030.2 |
| 20260830101712 | 54 | 146 | 1.0 | 4.0 | 0.00 | 0.00 | 0.00 | 67 | 1030.0 |
| 20260830100213 | 55 | 144 | 2.0 | 5.0 | 0.00 | 0.00 | 0.00 | 67 | 1030.1 |
| 20260830094720 | 56 | 159 | 2.0 | 4.0 | 0.00 | 0.00 | 0.00 | 66 | 1030.0 |
| 20260830093220 | 56 | 158 | 2.0 | 4.0 | 0.00 | 0.00 | 0.00 | 65 | 1029.9 |
| 20260830091710 | 57 | 76 | 1.0 | 3.0 | 0.00 | 0.00 | 0.00 | 64 | 1029.7 |
| 20260830090212 | 58 | 70 | 1.0 | 2.0 | 0.00 | 0.00 | 0.00 | 62 | 1029.7 |
| 20260830084712 | 59 | 70 | 0.0 | 2.0 | 0.00 | 0.00 | 0.00 | 61 | 1029.6 |
| 20260830083212 | 60 | 46 | 0.0 | 0.0 | 0.00 | 0.00 | 0.00 | 59 | 1029.3 |
| 20260830082425 | 62 | 46 | 0.0 | 0.0 | 0.00 | 0.00 | 0.00 | 57 | 1029.2 |
| 20260830080211 | 64 | 46 | 0.0 | 0.0 | 0.00 | 0.00 | 0.00 | 54 | 1029.0 |
| 20260830074701 | 66 | 46 | 0.0 | 3.0 | 0.00 | 0.00 | 0.00 | 50 | 1028.8 |
| 20260830073152 | 68 | 37 | 0.0 | 3.0 | 0.00 | 0.00 | 0.00 | 45 | 1028.3 |
| 20260830071702 | 70 | 28 | 1.0 | 3.0 | 0.00 | 0.00 | 0.00 | 41 | 1028.4 |
| 20260830070837 | 72 | 70 | 2.0 | 6.0 | 0.00 | 0.00 | 0.00 | 39 | 1028.4 |
| 20260830064637 | 73 | 62 | 2.0 | 6.0 | 0.00 | 0.00 | 0.00 | 37 | 1028.3 |